Saint Leonards, United Kingdom
Current Conditions -  °F | °C
As of 7:50 AM on Friday 31 Oct 2014 (Local Time) from EGHH Reporting Station
Clear Clear  
Wind Chill: 59°   Ceiling: Unl
Heat Index: 59°   Visibility: 6mi
Dew Point: 59°   Wind: 6mph
Humidity: 100%   Direction: 150°SSE
Pressure: 30.03"   Gusts: NA
Location:  50.83°N, 1.85°W
Report Text: EGHH 310750Z 15005KT 120V190 9000 NSC 15/15 Q1017
Loading
Personal Weather Stations






























Interactive Weather Map
Tropical Storm Tracking
New forecast layout! Learn more

10-Day Weather Forecast

Advertisements
Track Severe Weather on mobile